Time;durP1;ratioP1;P1;durP2;ratioP2;P2;SDS_P1;SDS_P2;PMS_P1;PMS_P2;Temp;Humidity;BMP_temperature;BMP_pressure;BME280_temperature;BME280_humidity;BME280_pressure;Samples;Min_cycle;Max_cycle;Signal;HPM_P1;HPM_P2
2022/10/10 00:01:06;;;;;;;12.10;5.90;;;;;9.80;94115.00;;;;7394003;19;20141;-80
2022/10/10 00:03:33;;;;;;;6.63;5.20;;;;;9.80;94116.00;;;;7396805;19;20140;-80
2022/10/10 00:06:08;;;;;;;9.00;6.20;;;;;9.80;94109.00;;;;7393077;19;20153;-80
2022/10/10 00:08:36;;;;;;;9.70;5.80;;;;;9.90;94116.00;;;;7396014;19;20157;-82
2022/10/10 00:11:04;;;;;;;9.98;5.15;;;;;9.90;94115.00;;;;7395141;19;20163;-79
2022/10/10 00:13:41;;;;;;;9.00;5.00;;;;;9.90;94118.00;;;;7397222;19;20124;-80
2022/10/10 00:16:11;;;;;;;11.07;5.80;;;;;10.00;94120.00;;;;7396203;19;20634;-82
2022/10/10 00:18:40;;;;;;;8.02;6.05;;;;;9.90;94118.00;;;;7398301;19;20160;-82
2022/10/10 00:21:13;;;;;;;8.10;5.47;;;;;9.80;94117.00;;;;7396622;19;21021;-80
2022/10/10 00:23:47;;;;;;;7.57;5.13;;;;;9.90;94117.00;;;;7395224;19;20169;-80
2022/10/10 00:26:33;;;;;;;8.10;5.43;;;;;9.90;94116.00;;;;7390193;19;20141;-79
2022/10/10 00:29:00;;;;;;;6.85;5.25;;;;;9.90;94113.00;;;;7394723;19;20152;-81
2022/10/10 00:31:34;;;;;;;7.40;5.43;;;;;9.90;94116.00;;;;7397625;19;20137;-80
2022/10/10 00:34:02;;;;;;;6.18;5.00;;;;;9.90;94101.00;;;;7398008;19;20152;-79
2022/10/10 00:36:30;;;;;;;10.85;4.90;;;;;9.90;94111.00;;;;7395133;19;20490;-81
2022/10/10 00:39:04;;;;;;;5.78;4.53;;;;;9.90;94108.00;;;;7395307;19;20599;-77
2022/10/10 00:41:31;;;;;;;7.00;5.15;;;;;10.00;94108.00;;;;7397148;19;20145;-79
2022/10/10 00:44:14;;;;;;;7.05;5.28;;;;;10.00;94095.00;;;;7395811;19;20141;-79
2022/10/10 00:46:51;;;;;;;5.15;4.63;;;;;10.00;94103.00;;;;7392307;19;20157;-78
2022/10/10 00:49:22;;;;;;;8.05;4.50;;;;;10.00;94112.00;;;;7395093;19;20150;-77
2022/10/10 00:51:52;;;;;;;8.48;4.72;;;;;9.90;94105.00;;;;7396229;19;20158;-80
2022/10/10 00:54:33;;;;;;;5.07;4.15;;;;;9.80;94101.00;;;;7391959;19;20124;-79
2022/10/10 00:57:10;;;;;;;6.03;3.90;;;;;9.70;94108.00;;;;7392641;19;20135;-78
2022/10/10 00:59:45;;;;;;;7.35;3.92;;;;;9.70;94103.00;;;;7397474;19;20669;-78
2022/10/10 01:02:13;;;;;;;4.40;4.00;;;;;9.70;94107.00;;;;7395451;19;20152;-75
2022/10/10 01:04:44;;;;;;;6.20;4.43;;;;;9.70;94091.00;;;;7393357;19;20140;-74
2022/10/10 01:07:28;;;;;;;6.00;4.28;;;;;10.00;94100.00;;;;7394906;19;20152;-75
2022/10/10 01:10:02;;;;;;;8.50;4.65;;;;;10.10;94095.00;;;;7396945;19;20128;-75
2022/10/10 01:12:53;;;;;;;8.23;4.10;;;;;10.10;94098.00;;;;7395702;19;20619;-75
2022/10/10 01:15:41;;;;;;;8.38;4.03;;;;;10.00;94096.00;;;;7394716;19;20144;-76
2022/10/10 01:18:39;;;;;;;6.18;4.07;;;;;9.90;94094.00;;;;7394368;19;20470;-75
2022/10/10 01:21:27;;;;;;;7.68;4.03;;;;;9.80;94096.00;;;;7392707;19;20163;-75
2022/10/10 01:24:18;;;;;;;7.75;3.75;;;;;9.80;94097.00;;;;7392765;19;20176;-75
2022/10/10 01:27:04;;;;;;;5.07;3.47;;;;;9.70;94095.00;;;;7394019;19;20156;-75
2022/10/10 01:30:04;;;;;;;6.07;4.40;;;;;9.60;94103.00;;;;7396131;19;20208;-75
2022/10/10 01:32:55;;;;;;;6.00;3.85;;;;;9.60;94093.00;;;;7393071;19;20595;-76
2022/10/10 01:35:32;;;;;;;6.20;3.88;;;;;9.70;94088.00;;;;7394274;19;20506;-75
2022/10/10 01:38:16;;;;;;;8.18;3.97;;;;;9.70;94086.00;;;;7391014;19;20125;-75
2022/10/10 01:41:07;;;;;;;6.43;4.20;;;;;9.70;94082.00;;;;7392334;19;20928;-75
2022/10/10 01:43:35;;;;;;;4.50;3.80;;;;;9.60;94088.00;;;;7394077;19;20147;-75
2022/10/10 01:46:15;;;;;;;6.75;4.15;;;;;9.70;94078.00;;;;7390353;19;20491;-75
2022/10/10 01:48:44;;;;;;;7.00;3.70;;;;;9.80;94082.00;;;;7393151;19;20128;-75
2022/10/10 01:51:28;;;;;;;5.28;3.78;;;;;9.80;94076.00;;;;7392485;19;20179;-75
2022/10/10 01:54:24;;;;;;;6.47;4.00;;;;;9.80;94074.00;;;;7394425;19;20143;-75
2022/10/10 01:57:09;;;;;;;4.35;3.83;;;;;9.80;94075.00;;;;7393636;19;20156;-75
2022/10/10 02:00:06;;;;;;;9.02;3.97;;;;;10.00;94084.00;;;;7394631;19;20148;-75
2022/10/10 02:03:06;;;;;;;7.45;4.00;;;;;10.10;94084.00;;;;7392465;19;20148;-74
2022/10/10 02:05:42;;;;;;;6.22;3.80;;;;;10.10;94085.00;;;;7393605;19;20141;-75
2022/10/10 02:08:32;;;;;;;4.32;3.75;;;;;10.20;94072.00;;;;7390412;19;20152;-75
2022/10/10 02:11:04;;;;;;;6.40;4.10;;;;;10.20;94070.00;;;;7392424;19;20956;-75
2022/10/10 02:14:10;;;;;;;5.35;3.58;;;;;10.10;94071.00;;;;7394452;19;20156;-75
2022/10/10 02:16:42;;;;;;;6.80;4.03;;;;;10.20;94075.00;;;;7391225;19;20223;-75
2022/10/10 02:19:18;;;;;;;5.15;3.70;;;;;10.00;94071.00;;;;7395543;19;20125;-75
2022/10/10 02:21:51;;;;;;;5.28;3.72;;;;;10.10;94067.00;;;;7393419;19;20461;-75
2022/10/10 02:24:32;;;;;;;6.95;3.70;;;;;10.10;94074.00;;;;7386234;19;20191;-76
2022/10/10 02:27:26;;;;;;;7.28;3.47;;;;;10.20;94068.00;;;;7390872;19;20140;-75
2022/10/10 02:30:03;;;;;;;5.70;3.35;;;;;10.10;94071.00;;;;7389986;19;20146;-75
2022/10/10 02:32:50;;;;;;;5.93;3.42;;;;;10.10;94067.00;;;;7390828;19;20208;-75
2022/10/10 02:35:30;;;;;;;4.57;3.60;;;;;10.50;94062.00;;;;7392405;19;20151;-74
2022/10/10 02:37:59;;;;;;;8.23;3.50;;;;;10.30;94065.00;;;;7393800;19;20537;-76
2022/10/10 02:40:34;;;;;;;7.28;3.38;;;;;10.40;94063.00;;;;7391707;19;20154;-75
2022/10/10 02:43:04;;;;;;;7.97;3.55;;;;;10.30;94062.00;;;;7391256;19;20132;-76
2022/10/10 02:45:33;;;;;;;5.70;3.78;;;;;10.20;94062.00;;;;7393151;19;20141;-76
2022/10/10 02:48:07;;;;;;;6.20;3.80;;;;;10.40;94065.00;;;;7391884;19;20126;-75
2022/10/10 02:50:34;;;;;;;6.13;3.65;;;;;10.40;94072.00;;;;7389174;19;20140;-75
2022/10/10 02:53:02;;;;;;;7.18;3.45;;;;;10.30;94070.00;;;;7392296;19;20132;-75
2022/10/10 02:55:35;;;;;;;8.40;3.58;;;;;10.50;94076.00;;;;7393285;19;20196;-75
2022/10/10 02:58:03;;;;;;;7.60;3.90;;;;;10.40;94076.00;;;;7393870;19;20129;-75
2022/10/10 03:00:30;;;;;;;5.57;3.33;;;;;10.40;94075.00;;;;7389221;19;20163;-75
2022/10/10 03:03:04;;;;;;;7.53;3.90;;;;;10.40;94081.00;;;;7392101;19;20151;-76
2022/10/10 03:05:32;;;;;;;5.22;3.08;;;;;10.40;94087.00;;;;7392112;19;20157;-75
2022/10/10 03:07:59;;;;;;;7.85;3.30;;;;;10.50;94081.00;;;;7393148;19;20206;-75
2022/10/10 03:10:38;;;;;;;6.45;3.45;;;;;10.60;94078.00;;;;7392406;19;20152;-75
2022/10/10 03:13:05;;;;;;;6.43;3.50;;;;;10.50;94080.00;;;;7390737;19;20172;-75
2022/10/10 03:15:33;;;;;;;7.30;3.50;;;;;10.30;94096.00;;;;7391748;19;20169;-75
2022/10/10 03:18:06;;;;;;;5.18;3.40;;;;;10.50;94074.00;;;;7389647;19;20611;-75
2022/10/10 03:20:34;;;;;;;7.22;2.97;;;;;10.50;94079.00;;;;7390141;19;20516;-75
2022/10/10 03:23:03;;;;;;;10.57;3.60;;;;;10.40;94072.00;;;;7391978;19;20169;-75
2022/10/10 03:25:42;;;;;;;8.77;3.33;;;;;10.40;94075.00;;;;7391326;19;20163;-75
2022/10/10 03:28:17;;;;;;;6.65;3.35;;;;;10.40;94081.00;;;;7388572;19;20154;-75
2022/10/10 03:30:51;;;;;;;5.68;3.50;;;;;10.60;94076.00;;;;7390049;19;20175;-75
2022/10/10 03:33:18;;;;;;;8.35;3.20;;;;;10.60;94078.00;;;;7391789;19;20148;-75
2022/10/10 03:35:46;;;;;;;8.85;3.55;;;;;10.70;94086.00;;;;7390440;19;20148;-75
2022/10/10 03:38:20;;;;;;;6.95;3.35;;;;;10.70;94084.00;;;;7395602;19;20156;-76
2022/10/10 03:40:47;;;;;;;8.45;3.13;;;;;10.60;94085.00;;;;7398162;19;20512;-75
2022/10/10 03:43:17;;;;;;;7.93;3.63;;;;;10.70;94083.00;;;;7397664;19;20221;-74
2022/10/10 03:45:51;;;;;;;9.85;3.53;;;;;10.70;94076.00;;;;7399901;19;20133;-75
2022/10/10 03:48:19;;;;;;;7.45;3.47;;;;;10.70;94084.00;;;;7396459;19;20145;-77
2022/10/10 03:50:46;;;;;;;7.40;3.30;;;;;10.80;94088.00;;;;7396698;19;20531;-75
2022/10/10 03:53:21;;;;;;;8.30;3.17;;;;;10.80;94087.00;;;;7397735;19;20136;-75
2022/10/10 03:55:48;;;;;;;4.45;3.20;;;;;10.90;94090.00;;;;7398773;19;20498;-75
2022/10/10 03:58:16;;;;;;;6.50;3.67;;;;;11.00;94086.00;;;;7394965;19;20223;-74
2022/10/10 04:00:54;;;;;;;6.80;3.35;;;;;11.00;94085.00;;;;7395403;19;20172;-75
2022/10/10 04:03:23;;;;;;;6.22;3.33;;;;;11.20;94090.00;;;;7396915;19;20152;-75
2022/10/10 04:05:59;;;;;;;12.43;3.28;;;;;11.30;94091.00;;;;7399322;19;20479;-77
2022/10/10 04:08:32;;;;;;;7.50;3.42;;;;;11.40;94083.00;;;;7394582;19;20209;-76
2022/10/10 04:10:59;;;;;;;6.32;3.58;;;;;11.40;94079.00;;;;7394903;19;20133;-75
2022/10/10 04:13:38;;;;;;;8.70;3.40;;;;;11.30;94085.00;;;;7393444;19;20168;-75
2022/10/10 04:16:08;;;;;;;15.13;3.42;;;;;11.00;94080.00;;;;7395084;19;20145;-76
2022/10/10 04:18:43;;;;;;;8.85;3.30;;;;;10.90;94084.00;;;;7396453;19;20683;-75
2022/10/10 04:21:18;;;;;;;12.25;3.53;;;;;11.00;94084.00;;;;7396552;19;20140;-75
2022/10/10 04:23:51;;;;;;;7.30;3.42;;;;;11.10;94082.00;;;;7394925;19;20155;-76
2022/10/10 04:26:32;;;;;;;8.20;3.65;;;;;11.20;94085.00;;;;7396050;19;20129;-77
2022/10/10 04:29:00;;;;;;;8.18;3.60;;;;;11.20;94094.00;;;;7395671;19;20148;-75
2022/10/10 04:31:34;;;;;;;6.45;3.38;;;;;11.30;94090.00;;;;7395169;19;20125;-75
2022/10/10 04:34:01;;;;;;;11.40;3.53;;;;;11.40;94086.00;;;;7397658;19;20145;-75
2022/10/10 04:36:32;;;;;;;6.22;3.15;;;;;11.50;94087.00;;;;7394384;19;20473;-75
2022/10/10 04:39:13;;;;;;;10.43;3.42;;;;;11.30;94082.00;;;;7395693;19;20148;-75
2022/10/10 04:41:41;;;;;;;5.30;3.40;;;;;11.10;94070.00;;;;7396662;19;20124;-76
2022/10/10 04:44:08;;;;;;;5.80;3.13;;;;;11.10;94078.00;;;;7395494;19;20611;-74
2022/10/10 04:46:42;;;;;;;9.38;3.38;;;;;11.00;94075.00;;;;7392565;19;20152;-75
2022/10/10 04:49:10;;;;;;;7.90;3.75;;;;;11.00;94071.00;;;;7395898;19;20201;-74
2022/10/10 04:51:40;;;;;;;9.35;2.90;;;;;10.90;94075.00;;;;7395292;19;20630;-74
2022/10/10 04:54:14;;;;;;;6.13;3.53;;;;;11.10;94086.00;;;;7394241;19;20169;-75
2022/10/10 04:56:42;;;;;;;7.20;3.33;;;;;11.20;94084.00;;;;7393439;19;20140;-75
2022/10/10 04:59:09;;;;;;;5.88;3.13;;;;;11.10;94084.00;;;;7395528;19;20152;-75
2022/10/10 05:01:43;;;;;;;6.13;3.20;;;;;11.10;94084.00;;;;7393545;19;20180;-76
2022/10/10 05:04:12;;;;;;;9.73;3.38;;;;;11.10;94084.00;;;;7393219;19;20168;-75
2022/10/10 05:06:39;;;;;;;10.43;3.55;;;;;11.20;94077.00;;;;7395478;19;20499;-75
2022/10/10 05:09:13;;;;;;;6.47;3.10;;;;;11.30;94081.00;;;;7394579;19;20151;-76
2022/10/10 05:11:41;;;;;;;5.53;3.28;;;;;11.50;94088.00;;;;7392580;19;20197;-75
2022/10/10 05:14:08;;;;;;;7.45;3.00;;;;;11.40;94085.00;;;;7394737;19;20153;-76
2022/10/10 05:16:42;;;;;;;9.25;3.15;;;;;11.50;94079.00;;;;7391191;19;20156;-76
2022/10/10 05:19:15;;;;;;;4.82;3.15;;;;;11.40;94089.00;;;;7388758;19;20443;-76
2022/10/10 05:21:42;;;;;;;8.88;3.72;;;;;11.30;94089.00;;;;7389684;19;20779;-77
2022/10/10 05:24:23;;;;;;;10.68;3.70;;;;;11.30;94095.00;;;;7393149;19;20180;-75
2022/10/10 05:26:50;;;;;;;8.45;3.20;;;;;11.50;94096.00;;;;7396446;19;20129;-76
2022/10/10 05:29:27;;;;;;;8.85;3.15;;;;;11.40;94098.00;;;;7396235;19;20139;-74
2022/10/10 05:31:55;;;;;;;11.95;3.33;;;;;11.40;94092.00;;;;7395396;19;20157;-73
2022/10/10 05:34:25;;;;;;;6.35;3.08;;;;;11.20;94097.00;;;;7394231;19;20200;-76
2022/10/10 05:36:59;;;;;;;6.10;3.47;;;;;11.40;94093.00;;;;7397111;19;20145;-75
2022/10/10 05:39:27;;;;;;;7.75;3.40;;;;;11.30;94091.00;;;;7396049;19;20208;-76
2022/10/10 05:41:59;;;;;;;7.45;3.58;;;;;11.20;94087.00;;;;7397848;19;20125;-75
2022/10/10 05:44:33;;;;;;;5.53;2.75;;;;;11.40;94096.00;;;;7396039;19;20158;-74
2022/10/10 05:47:03;;;;;;;10.35;3.15;;;;;11.60;94099.00;;;;7393321;19;20461;-74
2022/10/10 05:49:30;;;;;;;6.68;3.42;;;;;11.40;94089.00;;;;7395806;19;20154;-76
2022/10/10 05:52:05;;;;;;;6.40;3.40;;;;;11.50;94102.00;;;;7392276;19;20180;-75
2022/10/10 05:54:35;;;;;;;8.13;3.40;;;;;11.40;94106.00;;;;7390255;19;20133;-75
2022/10/10 05:57:02;;;;;;;9.45;3.70;;;;;11.40;94101.00;;;;7394460;19;20163;-74
2022/10/10 05:59:42;;;;;;;7.93;3.40;;;;;11.40;94104.00;;;;7390299;19;20145;-76
2022/10/10 06:02:12;;;;;;;17.17;3.50;;;;;11.40;94100.00;;;;7387233;19;20148;-75
2022/10/10 06:04:46;;;;;;;6.40;3.00;;;;;11.50;94111.00;;;;7391301;19;20217;-75
2022/10/10 06:07:14;;;;;;;5.90;2.92;;;;;11.60;94111.00;;;;7392642;19;20155;-74
2022/10/10 06:09:41;;;;;;;7.65;3.70;;;;;11.60;94119.00;;;;7391740;19;20160;-74
2022/10/10 06:12:17;;;;;;;8.18;3.35;;;;;11.60;94125.00;;;;7393620;19;20153;-75
2022/10/10 06:14:45;;;;;;;9.25;3.10;;;;;11.70;94112.00;;;;7390902;19;20236;-74
2022/10/10 06:17:15;;;;;;;9.18;3.03;;;;;11.70;94110.00;;;;7391851;19;20938;-74
2022/10/10 06:19:48;;;;;;;8.10;3.17;;;;;11.60;94113.00;;;;7393678;19;20207;-74
2022/10/10 06:22:16;;;;;;;7.00;2.80;;;;;11.60;94120.00;;;;7388098;19;20153;-76
2022/10/10 06:24:43;;;;;;;8.85;3.03;;;;;11.50;94120.00;;;;7387924;19;20172;-74
2022/10/10 06:27:19;;;;;;;7.45;3.22;;;;;11.60;94116.00;;;;7393481;19;20152;-74
2022/10/10 06:29:46;;;;;;;7.68;2.88;;;;;11.70;94130.00;;;;7392173;19;20129;-73
2022/10/10 06:32:14;;;;;;;10.32;3.38;;;;;11.60;94130.00;;;;7389816;19;20208;-75
2022/10/10 06:34:47;;;;;;;7.05;3.00;;;;;11.70;94129.00;;;;7392260;19;20528;-74
2022/10/10 06:37:17;;;;;;;9.18;2.97;;;;;11.90;94127.00;;;;7394332;19;20148;-74
2022/10/10 06:39:44;;;;;;;13.95;3.30;;;;;12.00;94128.00;;;;7392187;19;20156;-73
2022/10/10 06:42:19;;;;;;;7.03;3.00;;;;;12.20;94131.00;;;;7389587;19;20147;-74
2022/10/10 06:44:46;;;;;;;6.80;2.97;;;;;12.40;94126.00;;;;7390806;19;20155;-74
2022/10/10 06:47:13;;;;;;;9.13;3.05;;;;;12.70;94133.00;;;;7390723;19;20479;-74
2022/10/10 06:49:48;;;;;;;9.88;3.42;;;;;12.80;94130.00;;;;7388544;19;20167;-75
2022/10/10 06:52:15;;;;;;;9.63;2.90;;;;;12.80;94136.00;;;;7388036;19;20172;-75
2022/10/10 06:54:43;;;;;;;6.15;3.50;;;;;12.90;94135.00;;;;7390698;19;20141;-74
2022/10/10 06:57:17;;;;;;;5.03;2.60;;;;;13.00;94139.00;;;;7391543;19;20243;-74
2022/10/10 06:59:44;;;;;;;7.68;2.83;;;;;13.10;94135.00;;;;7394135;19;20149;-74
2022/10/10 07:02:15;;;;;;;5.38;2.70;;;;;13.20;94139.00;;;;7393463;19;20584;-74
2022/10/10 07:04:52;;;;;;;7.90;2.58;;;;;13.30;94146.00;;;;7391834;19;20140;-76
2022/10/10 07:07:19;;;;;;;8.20;2.70;;;;;13.40;94154.00;;;;7392108;19;20146;-74
2022/10/10 07:09:50;;;;;;;4.95;2.63;;;;;13.60;94137.00;;;;7389566;19;20227;-74
2022/10/10 07:12:24;;;;;;;5.70;2.42;;;;;13.80;94144.00;;;;7398106;19;20158;-76
2022/10/10 07:14:55;;;;;;;8.57;2.75;;;;;13.90;94144.00;;;;7397825;19;20129;-77
2022/10/10 07:17:27;;;;;;;6.18;2.45;;;;;13.90;94137.00;;;;7397163;19;20141;-74
2022/10/10 07:20:03;;;;;;;5.38;2.47;;;;;14.10;94134.00;;;;7397476;19;20151;-75
2022/10/10 07:22:31;;;;;;;4.30;2.30;;;;;14.20;94135.00;;;;7393604;19;20173;-76
2022/10/10 07:25:06;;;;;;;6.60;2.40;;;;;14.40;94144.00;;;;7382154;19;20173;-75
2022/10/10 07:27:40;;;;;;;7.43;2.33;;;;;14.60;94149.00;;;;7399607;19;20132;-74
2022/10/10 07:30:07;;;;;;;5.78;2.70;;;;;14.90;94152.00;;;;7395317;19;20167;-73
2022/10/10 07:32:39;;;;;;;3.00;2.25;;;;;15.20;94151.00;;;;7396408;19;20152;-76
2022/10/10 07:35:15;;;;;;;3.33;2.10;;;;;14.90;94165.00;;;;7398096;19;20156;-75
2022/10/10 07:37:45;;;;;;;5.43;2.30;;;;;14.70;94152.00;;;;7389165;19;20236;-74
2022/10/10 07:40:15;;;;;;;3.40;2.30;;;;;14.70;94155.00;;;;7395270;19;20182;-75
2022/10/10 07:42:49;;;;;;;3.53;2.00;;;;;14.60;94178.00;;;;7398991;19;20148;-76
2022/10/10 07:45:24;;;;;;;4.95;2.22;;;;;14.60;94172.00;;;;7399273;19;20157;-74
2022/10/10 07:48:23;;;;;;;7.85;2.38;;;;;14.50;94182.00;;;;7400636;19;20611;-74
2022/10/10 07:50:58;;;;;;;7.28;2.53;;;;;14.50;94181.00;;;;7397913;19;20157;-74
2022/10/10 07:53:43;;;;;;;3.15;2.08;;;;;14.60;94176.00;;;;7399822;19;20197;-75
2022/10/10 07:56:18;;;;;;;3.67;2.20;;;;;14.70;94184.00;;;;7398657;19;20635;-75
2022/10/10 07:59:08;;;;;;;8.23;2.47;;;;;14.50;94194.00;;;;7399431;19;20133;-75
2022/10/10 08:01:58;;;;;;;4.30;2.22;;;;;14.40;94195.00;;;;7398897;19;20148;-75
2022/10/10 08:04:43;;;;;;;5.43;2.22;;;;;14.40;94197.00;;;;7394879;19;20160;-76
2022/10/10 08:07:28;;;;;;;4.47;2.15;;;;;14.20;94200.00;;;;7399455;19;20156;-75
2022/10/10 08:10:08;;;;;;;5.53;2.70;;;;;14.20;94200.00;;;;7398277;19;20149;-74
2022/10/10 08:12:37;;;;;;;4.68;2.00;;;;;14.80;94186.00;;;;7393941;19;20204;-74
2022/10/10 08:15:14;;;;;;;5.82;2.63;;;;;15.00;94202.00;;;;7394500;19;20150;-75
2022/10/10 08:17:41;;;;;;;4.55;2.30;;;;;15.10;94191.00;;;;7395849;19;20143;-76
2022/10/10 08:20:09;;;;;;;4.60;2.08;;;;;15.40;94188.00;;;;7396493;19;20144;-75
2022/10/10 08:22:50;;;;;;;4.53;2.33;;;;;16.20;94185.00;;;;7392296;19;20125;-76
2022/10/10 08:25:25;;;;;;;5.40;2.30;;;;;16.70;94186.00;;;;7397310;19;20743;-75
2022/10/10 08:27:59;;;;;;;3.42;2.20;;;;;16.60;94170.00;;;;7397178;19;20686;-75
2022/10/10 08:30:48;;;;;;;4.57;2.25;;;;;16.70;94173.00;;;;7391812;19;20152;-76
2022/10/10 08:33:26;;;;;;;4.55;2.55;;;;;17.00;94183.00;;;;7395458;19;20139;-74
2022/10/10 08:35:56;;;;;;;4.13;2.03;;;;;17.20;94186.00;;;;7394538;19;20615;-75
2022/10/10 08:38:31;;;;;;;3.92;2.25;;;;;17.60;94180.00;;;;7393330;19;20639;-74
2022/10/10 08:41:27;;;;;;;8.60;2.35;;;;;17.80;94183.00;;;;7394574;19;20133;-76
2022/10/10 08:44:17;;;;;;;9.68;2.55;;;;;17.90;94194.00;;;;7392747;19;20180;-74
2022/10/10 08:47:01;;;;;;;4.60;2.03;;;;;16.90;94193.00;;;;7394573;19;20132;-73
2022/10/10 08:49:55;;;;;;;4.43;2.30;;;;;16.80;94183.00;;;;7395168;19;20165;-74
2022/10/10 08:52:52;;;;;;;8.10;2.33;;;;;17.70;94187.00;;;;7391365;19;20176;-73
2022/10/10 08:55:34;;;;;;;5.28;3.15;;;;;17.90;94187.00;;;;7394280;19;20177;-76
2022/10/10 08:58:22;;;;;;;4.82;2.45;;;;;18.40;94180.00;;;;7393982;19;20152;-74
2022/10/10 09:01:09;;;;;;;8.38;2.70;;;;;18.60;94182.00;;;;7391790;19;20117;-75
2022/10/10 09:03:47;;;;;;;3.88;2.13;;;;;18.80;94180.00;;;;7394450;19;20211;-76
2022/10/10 09:06:27;;;;;;;7.38;2.30;;;;;18.90;94185.00;;;;7391713;19;20596;-76
2022/10/10 09:09:20;;;;;;;5.22;2.60;;;;;19.30;94179.00;;;;7390977;19;20149;-76
2022/10/10 09:12:20;;;;;;;6.65;2.17;;;;;19.50;94177.00;;;;7394197;19;20137;-75
2022/10/10 09:15:17;;;;;;;7.40;2.13;;;;;19.40;94164.00;;;;7391896;19;20630;-75
2022/10/10 09:17:57;;;;;;;11.38;2.33;;;;;19.20;94164.00;;;;7393236;19;20163;-74
2022/10/10 09:20:44;;;;;;;8.73;2.58;;;;;19.40;94163.00;;;;7389007;19;20145;-74
2022/10/10 09:23:26;;;;;;;10.63;2.50;;;;;19.40;94164.00;;;;7392137;19;20227;-74
2022/10/10 09:26:12;;;;;;;8.77;2.17;;;;;19.30;94167.00;;;;7390647;19;20147;-73
2022/10/10 09:28:56;;;;;;;10.48;2.67;;;;;19.40;94170.00;;;;7389592;19;20522;-74
2022/10/10 09:31:50;;;;;;;18.35;2.53;;;;;19.60;94168.00;;;;7391726;19;20168;-75
2022/10/10 09:34:36;;;;;;;10.30;2.03;;;;;19.80;94165.00;;;;7390580;19;20156;-74
2022/10/10 09:37:11;;;;;;;13.55;2.85;;;;;19.70;94164.00;;;;7389115;19;20125;-73
2022/10/10 09:40:26;;;;;;;9.98;2.83;;;;;19.80;94164.00;;;;7394141;19;20482;-75
2022/10/10 09:42:55;;;;;;;16.00;3.10;;;;;19.80;94168.00;;;;7392282;19;20207;-74
2022/10/10 09:45:42;;;;;;;9.02;2.60;;;;;20.10;94182.00;;;;7394224;19;20215;-73
2022/10/10 09:48:10;;;;;;;12.98;2.35;;;;;19.90;94183.00;;;;7388089;19;20738;-74
2022/10/10 09:50:44;;;;;;;13.70;3.08;;;;;19.90;94173.00;;;;7386951;19;20148;-74
2022/10/10 09:53:16;;;;;;;13.73;2.95;;;;;20.20;94177.00;;;;7392441;19;20143;-76
2022/10/10 09:55:45;;;;;;;15.38;2.97;;;;;20.30;94164.00;;;;7393170;19;20133;-76
2022/10/10 09:58:42;;;;;;;18.63;3.50;;;;;20.30;94183.00;;;;7392090;19;20566;-76
2022/10/10 10:01:10;;;;;;;14.82;3.30;;;;;20.70;94184.00;;;;7390966;19;20148;-76
2022/10/10 10:04:11;;;;;;;14.48;3.13;;;;;20.50;94177.00;;;;7393271;19;20506;-74
2022/10/10 10:07:27;;;;;;;15.25;3.47;;;;;20.10;94176.00;;;;7387556;19;20156;-73
2022/10/10 10:10:25;;;;;;;14.32;3.58;;;;;20.30;94186.00;;;;7392114;19;20157;-75
2022/10/10 10:12:54;;;;;;;15.15;3.15;;;;;20.50;94185.00;;;;7390486;19;20181;-76
2022/10/10 10:15:31;;;;;;;17.75;3.30;;;;;20.70;94190.00;;;;7393145;19;20200;-74
2022/10/10 10:18:09;;;;;;;16.55;3.42;;;;;20.20;94190.00;;;;7391617;19;20152;-74
2022/10/10 10:20:45;;;;;;;13.85;3.40;;;;;20.00;94194.00;;;;7389936;19;20137;-75
2022/10/10 10:23:39;;;;;;;12.30;3.30;;;;;20.00;94214.00;;;;7390724;19;20593;-74
2022/10/10 10:26:39;;;;;;;11.68;3.28;;;;;19.90;94195.00;;;;7390014;19;20610;-74
2022/10/10 10:29:29;;;;;;;15.52;3.60;;;;;20.10;94191.00;;;;7388793;19;20154;-74
2022/10/10 10:32:14;;;;;;;20.25;4.15;;;;;20.00;94214.00;;;;7393564;19;20729;-73
2022/10/10 10:35:17;;;;;;;20.88;3.53;;;;;19.90;94203.00;;;;7391092;19;20232;-74
2022/10/10 10:38:33;;;;;;;18.63;3.40;;;;;20.30;94207.00;;;;7392940;19;20132;-74
2022/10/10 10:41:26;;;;;;;23.02;3.42;;;;;20.10;94198.00;;;;7392473;19;20147;-73
2022/10/10 10:44:06;;;;;;;16.63;3.45;;;;;20.80;94205.00;;;;7392871;19;20630;-75
2022/10/10 10:46:36;;;;;;;18.15;3.90;;;;;20.90;94198.00;;;;7394823;19;20152;-75
2022/10/10 10:49:21;;;;;;;13.77;3.28;;;;;20.70;94212.00;;;;7398763;19;20163;-76
2022/10/10 10:52:30;;;;;;;20.77;3.30;;;;;21.20;94201.00;;;;7393511;19;20622;-74
2022/10/10 10:55:09;;;;;;;17.17;3.50;;;;;21.20;94219.00;;;;7398105;19;20150;-75
2022/10/10 10:57:55;;;;;;;14.80;3.58;;;;;20.90;94201.00;;;;7403225;19;20468;-75
2022/10/10 11:01:01;;;;;;;18.05;3.22;;;;;21.10;94210.00;;;;7397897;19;20659;-76
2022/10/10 11:04:03;;;;;;;16.73;3.45;;;;;20.90;94206.00;;;;7399008;19;20204;-74
2022/10/10 11:07:16;;;;;;;16.90;3.92;;;;;20.90;94201.00;;;;7397473;19;20488;-76
2022/10/10 11:10:11;;;;;;;12.20;3.03;;;;;20.90;94201.00;;;;7398695;19;20544;-73
2022/10/10 11:13:02;;;;;;;17.30;3.00;;;;;21.20;94191.00;;;;7398128;19;20137;-74
2022/10/10 11:15:45;;;;;;;14.02;3.35;;;;;21.10;94210.00;;;;7399089;19;20216;-75
2022/10/10 11:19:22;;;;;;;15.10;3.20;;;;;21.80;94189.00;;;;7398535;19;20159;-77
2022/10/10 11:22:21;;;;;;;14.30;3.58;;;;;22.10;94196.00;;;;7394954;19;20156;-76
2022/10/10 11:25:29;;;;;;;16.85;3.65;;;;;22.20;94182.00;;;;7394081;19;20184;-75
2022/10/10 11:28:24;;;;;;;21.48;4.00;;;;;22.40;94184.00;;;;7397969;19;20472;-75
2022/10/10 11:31:10;;;;;;;18.50;3.35;;;;;22.10;94195.00;;;;7395911;19;20148;-77
2022/10/10 11:33:50;;;;;;;11.65;3.13;;;;;21.70;94211.00;;;;7398521;19;20204;-77
2022/10/10 11:36:40;;;;;;;14.70;3.35;;;;;21.10;94213.00;;;;7397277;19;20178;-76
2022/10/10 11:39:30;;;;;;;13.88;3.10;;;;;21.10;94201.00;;;;7395104;19;20193;-76
2022/10/10 11:42:18;;;;;;;17.92;2.80;;;;;20.60;94205.00;;;;7395693;19;20226;-75
2022/10/10 11:45:10;;;;;;;16.35;3.47;;;;;20.80;94214.00;;;;7395715;19;20157;-75
2022/10/10 11:48:14;;;;;;;16.38;3.03;;;;;20.10;94218.00;;;;7397099;19;20614;-75
2022/10/10 11:50:43;;;;;;;15.07;3.10;;;;;20.20;94200.00;;;;7392864;19;20654;-74
2022/10/10 11:53:43;;;;;;;14.30;3.08;;;;;20.60;94209.00;;;;7399204;19;20140;-77
2022/10/10 11:56:43;;;;;;;20.40;3.42;;;;;20.30;94220.00;;;;7392070;19;20155;-76
2022/10/10 11:59:30;;;;;;;14.02;3.22;;;;;19.50;94213.00;;;;7393906;19;20139;-74
2022/10/10 12:02:00;;;;;;;18.98;3.63;;;;;20.10;94208.00;;;;7396276;19;20633;-75
2022/10/10 12:04:37;;;;;;;15.38;3.45;;;;;19.90;94215.00;;;;7397133;19;20156;-74
2022/10/10 12:07:37;;;;;;;20.60;3.67;;;;;20.10;94212.00;;;;7397594;19;20216;-77
2022/10/10 12:10:20;;;;;;;9.18;3.10;;;;;19.90;94210.00;;;;7393678;19;20158;-75
2022/10/10 12:12:53;;;;;;;17.67;3.55;;;;;19.90;94222.00;;;;7395271;19;20461;-75
2022/10/10 12:15:33;;;;;;;24.35;3.50;;;;;19.70;94212.00;;;;7398045;19;20553;-74
2022/10/10 12:18:38;;;;;;;16.60;2.88;;;;;19.70;94214.00;;;;7398296;19;20137;-75
2022/10/10 12:21:17;;;;;;;15.40;2.80;;;;;19.60;94216.00;;;;7395245;19;20486;-75
2022/10/10 12:24:07;;;;;;;11.43;3.08;;;;;19.40;94215.00;;;;7395662;19;20530;-74
2022/10/10 12:26:56;;;;;;;17.15;3.90;;;;;19.20;94213.00;;;;7395025;19;20160;-75
2022/10/10 12:29:42;;;;;;;16.65;3.17;;;;;19.60;94198.00;;;;7390311;19;20155;-73
2022/10/10 12:32:25;;;;;;;18.10;3.83;;;;;21.10;94192.00;;;;7391838;19;20180;-74
2022/10/10 12:34:52;;;;;;;17.95;4.07;;;;;21.80;94193.00;;;;7396500;19;20207;-75
2022/10/10 12:38:02;;;;;;;13.25;3.42;;;;;21.90;94191.00;;;;7395548;19;20171;-76
2022/10/10 12:40:32;;;;;;;13.32;3.47;;;;;22.30;94190.00;;;;7391853;19;20182;-74
2022/10/10 12:43:40;;;;;;;17.00;3.83;;;;;22.50;94185.00;;;;7388092;19;20148;-74
2022/10/10 12:46:22;;;;;;;19.75;3.60;;;;;22.30;94180.00;;;;7396582;19;20470;-73
2022/10/10 12:49:18;;;;;;;12.98;3.20;;;;;22.40;94182.00;;;;7396932;19;20661;-74
2022/10/10 12:52:31;;;;;;;17.63;4.35;;;;;21.90;94191.00;;;;7390235;19;20171;-75
2022/10/10 12:55:26;;;;;;;11.82;2.92;;;;;22.30;94184.00;;;;7391205;19;20218;-74
2022/10/10 12:58:09;;;;;;;18.42;3.65;;;;;22.30;94193.00;;;;7390642;19;20149;-74
2022/10/10 13:00:57;;;;;;;12.00;3.28;;;;;21.90;94206.00;;;;7392531;19;20145;-75
2022/10/10 13:03:31;;;;;;;15.82;3.13;;;;;22.40;94198.00;;;;7392383;19;20228;-75
2022/10/10 13:06:27;;;;;;;17.17;3.83;;;;;21.90;94206.00;;;;7394524;19;20595;-75
2022/10/10 13:08:56;;;;;;;15.98;3.40;;;;;22.00;94193.00;;;;7391823;19;20588;-76
2022/10/10 13:11:30;;;;;;;20.70;3.60;;;;;22.50;94195.00;;;;7390423;19;20145;-77
2022/10/10 13:13:58;;;;;;;16.15;3.03;;;;;22.30;94190.00;;;;7393345;19;20216;-74